createdAt,value
2023-03-15T00:01:21.431Z,3.70
2023-03-15T00:03:49.010Z,3.70
2023-03-15T00:06:16.968Z,3.80
2023-03-15T00:08:47.436Z,3.90
2023-03-15T00:11:16.456Z,3.90
2023-03-15T00:13:44.910Z,4.00
2023-03-15T00:16:18.688Z,4.00
2023-03-15T00:18:47.161Z,4.10
2023-03-15T00:21:15.103Z,4.20
2023-03-15T00:23:42.317Z,4.30
2023-03-15T00:26:09.938Z,4.30
2023-03-15T00:28:37.534Z,4.40
2023-03-15T00:31:14.011Z,4.30
2023-03-15T00:33:41.621Z,4.20
2023-03-15T00:36:10.682Z,4.20
2023-03-15T00:38:39.369Z,4.20
2023-03-15T00:41:06.973Z,4.20
2023-03-15T00:43:34.619Z,4.00
2023-03-15T00:46:02.904Z,4.00
2023-03-15T00:48:30.481Z,3.90
2023-03-15T00:51:08.549Z,3.80
2023-03-15T00:53:36.942Z,3.70
2023-03-15T00:56:10.401Z,3.70
2023-03-15T00:58:38.642Z,3.70
2023-03-15T01:01:11.614Z,3.70
2023-03-15T01:03:39.380Z,3.50
2023-03-15T01:06:26.800Z,3.30
2023-03-15T01:08:55.811Z,2.90
2023-03-15T01:11:25.774Z,2.50
2023-03-15T01:13:54.969Z,2.00
2023-03-15T01:16:22.882Z,1.80
2023-03-15T01:18:51.570Z,1.70
2023-03-15T01:21:21.160Z,1.60
2023-03-15T01:23:49.066Z,1.60
2023-03-15T01:26:17.418Z,1.60
2023-03-15T01:28:44.983Z,2.10
2023-03-15T01:31:23.413Z,1.70
2023-03-15T01:33:51.360Z,1.70
2023-03-15T01:36:18.892Z,1.80
2023-03-15T01:38:47.008Z,1.70
2023-03-15T01:41:19.838Z,1.80
2023-03-15T01:43:47.589Z,1.80
2023-03-15T01:46:35.265Z,1.90
2023-03-15T01:49:30.967Z,1.90
2023-03-15T01:52:05.610Z,1.90
2023-03-15T01:55:05.249Z,1.90
2023-03-15T01:57:57.655Z,2.00
2023-03-15T02:00:27.560Z,2.00
2023-03-15T02:03:21.081Z,2.00
2023-03-15T02:05:56.873Z,1.90
2023-03-15T02:08:41.450Z,1.90
2023-03-15T02:11:09.087Z,2.00
2023-03-15T02:13:36.542Z,2.00
2023-03-15T02:16:08.490Z,2.00
2023-03-15T02:18:45.323Z,2.00
2023-03-15T02:21:30.824Z,2.00
2023-03-15T02:24:26.136Z,1.90
2023-03-15T02:26:56.489Z,2.00
2023-03-15T02:29:28.055Z,2.00
2023-03-15T02:31:56.006Z,2.00
2023-03-15T02:34:26.241Z,2.10
2023-03-15T02:36:54.697Z,2.10
2023-03-15T02:39:23.076Z,2.10
2023-03-15T02:41:56.824Z,2.10
2023-03-15T02:44:29.871Z,2.10
2023-03-15T02:47:02.290Z,2.20
2023-03-15T02:49:34.349Z,2.20
2023-03-15T02:52:01.688Z,2.20
2023-03-15T02:54:28.915Z,2.20
2023-03-15T02:56:56.099Z,2.20
2023-03-15T02:59:23.895Z,2.20
2023-03-15T03:01:51.125Z,2.20
2023-03-15T03:04:18.881Z,2.00
2023-03-15T03:06:46.424Z,1.90
2023-03-15T03:09:17.635Z,1.90
2023-03-15T03:11:46.073Z,1.70
2023-03-15T03:14:16.094Z,1.60
2023-03-15T03:16:43.460Z,1.50
2023-03-15T03:19:14.077Z,1.40
2023-03-15T03:21:45.806Z,1.30
2023-03-15T03:24:16.129Z,1.30
2023-03-15T03:26:45.880Z,1.20
2023-03-15T03:29:16.662Z,1.10
2023-03-15T03:31:45.804Z,1.10
2023-03-15T03:34:15.460Z,1.10
2023-03-15T03:36:43.565Z,1.00
2023-03-15T03:39:12.083Z,0.90
2023-03-15T03:41:39.345Z,0.90
2023-03-15T03:44:07.299Z,1.00
2023-03-15T03:46:36.266Z,1.00
2023-03-15T03:49:03.515Z,1.00
2023-03-15T03:51:33.913Z,1.00
2023-03-15T03:54:01.906Z,0.90
2023-03-15T03:56:29.527Z,0.70
2023-03-15T03:58:56.764Z,0.70
2023-03-15T04:01:31.260Z,0.80
2023-03-15T04:03:58.513Z,0.80
2023-03-15T04:06:25.800Z,0.90
2023-03-15T04:08:53.459Z,0.80
2023-03-15T04:11:27.366Z,0.80
2023-03-15T04:13:59.234Z,0.80
2023-03-15T04:16:27.109Z,0.80
2023-03-15T04:19:16.403Z,0.70
2023-03-15T04:21:47.372Z,0.80
2023-03-15T04:24:36.103Z,0.70
2023-03-15T04:27:15.285Z,0.70
2023-03-15T04:30:17.923Z,0.60
2023-03-15T04:32:58.744Z,0.70
2023-03-15T04:35:43.518Z,0.70
2023-03-15T04:38:35.369Z,0.80
2023-03-15T04:41:20.403Z,0.70
2023-03-15T04:44:12.019Z,0.70
2023-03-15T04:46:39.190Z,0.80
2023-03-15T04:49:25.598Z,0.80
2023-03-15T04:52:11.617Z,0.80
2023-03-15T04:54:39.239Z,0.80
2023-03-15T04:57:32.408Z,0.80
2023-03-15T05:00:12.937Z,0.70
2023-03-15T05:03:01.974Z,0.80
2023-03-15T05:05:45.366Z,0.80
2023-03-15T05:08:36.597Z,0.70
2023-03-15T05:11:13.520Z,0.70
2023-03-15T05:14:03.787Z,0.50
2023-03-15T05:16:44.276Z,0.60
2023-03-15T05:19:34.524Z,0.50
2023-03-15T05:22:25.361Z,0.50
2023-03-15T05:25:07.115Z,0.50
2023-03-15T05:27:41.647Z,0.50
2023-03-15T05:30:24.105Z,0.60
2023-03-15T05:33:09.810Z,0.60
2023-03-15T05:35:56.404Z,0.60
2023-03-15T05:38:55.939Z,0.50
2023-03-15T05:41:38.576Z,0.40
2023-03-15T05:44:28.779Z,0.40
2023-03-15T05:47:17.302Z,0.40
2023-03-15T05:50:06.335Z,0.50
2023-03-15T05:53:05.995Z,0.40
2023-03-15T05:55:51.832Z,0.50
2023-03-15T05:58:53.064Z,0.50
2023-03-15T06:01:48.949Z,0.60
2023-03-15T06:04:21.974Z,0.70
2023-03-15T06:06:49.467Z,0.60
2023-03-15T06:09:19.316Z,0.70
2023-03-15T06:11:47.141Z,0.70
2023-03-15T06:14:14.764Z,0.70
2023-03-15T06:16:49.034Z,0.70
2023-03-15T06:19:16.225Z,0.80
2023-03-15T06:21:43.382Z,0.80
2023-03-15T06:24:17.294Z,0.70
2023-03-15T06:26:45.170Z,0.70
2023-03-15T06:29:12.755Z,0.80
2023-03-15T06:31:40.410Z,0.70
2023-03-15T06:34:10.061Z,0.70
2023-03-15T06:36:37.285Z,0.70
2023-03-15T06:39:05.644Z,0.80
2023-03-15T06:41:32.842Z,0.90
2023-03-15T06:44:07.534Z,1.00
2023-03-15T06:46:35.945Z,1.10
2023-03-15T06:49:03.374Z,1.10
2023-03-15T06:51:31.042Z,1.30
2023-03-15T06:53:58.190Z,1.40
2023-03-15T06:56:25.453Z,1.50
2023-03-15T06:58:52.650Z,1.40
2023-03-15T07:01:19.848Z,1.60
2023-03-15T07:03:47.287Z,1.70
2023-03-15T07:06:14.452Z,1.80
2023-03-15T07:08:41.682Z,1.80
2023-03-15T07:11:09.108Z,1.70
2023-03-15T07:13:36.329Z,1.80
2023-03-15T07:16:03.727Z,1.80
2023-03-15T07:18:33.635Z,1.70
2023-03-15T07:21:02.403Z,1.70
2023-03-15T07:23:30.887Z,1.80
2023-03-15T07:25:58.057Z,1.80
2023-03-15T07:28:26.734Z,1.80
2023-03-15T07:30:54.714Z,1.90
2023-03-15T07:33:22.967Z,2.00
2023-03-15T07:35:51.593Z,1.90
2023-03-15T07:38:19.429Z,2.10
2023-03-15T07:40:46.605Z,2.20
2023-03-15T07:43:13.829Z,2.30
2023-03-15T07:45:42.107Z,2.40
2023-03-15T07:48:09.361Z,2.40
2023-03-15T07:50:37.106Z,2.50
2023-03-15T07:53:05.447Z,2.40
2023-03-15T07:55:34.030Z,2.50
2023-03-15T07:58:01.873Z,2.50
2023-03-15T08:00:29.656Z,2.50
2023-03-15T08:02:57.306Z,2.50
2023-03-15T08:05:26.630Z,2.50
2023-03-15T08:07:55.015Z,2.40
2023-03-15T08:10:22.631Z,2.60
2023-03-15T08:12:49.856Z,2.70
2023-03-15T08:15:17.658Z,2.60
2023-03-15T08:17:46.936Z,2.50
2023-03-15T08:20:17.556Z,2.60
2023-03-15T08:22:46.710Z,2.60
2023-03-15T08:25:15.844Z,2.70
2023-03-15T08:27:43.296Z,3.00
2023-03-15T08:30:15.254Z,3.20
2023-03-15T08:32:44.902Z,3.10
2023-03-15T08:35:15.684Z,3.30
2023-03-15T08:37:46.937Z,3.40
2023-03-15T08:40:23.749Z,3.60
2023-03-15T08:42:53.937Z,3.90
2023-03-15T08:45:23.876Z,3.90
2023-03-15T08:47:55.589Z,4.00
2023-03-15T08:50:22.966Z,4.10
2023-03-15T08:52:50.642Z,4.20
2023-03-15T08:55:18.074Z,4.40
2023-03-15T08:57:45.392Z,4.20
2023-03-15T09:00:17.815Z,4.20
2023-03-15T09:02:45.105Z,4.30
2023-03-15T09:05:12.348Z,4.30
2023-03-15T09:07:42.778Z,4.10
2023-03-15T09:10:14.870Z,4.00
2023-03-15T09:12:47.465Z,4.20
2023-03-15T09:15:15.433Z,4.20
2023-03-15T09:17:42.844Z,4.10
2023-03-15T09:20:16.173Z,4.20
2023-03-15T09:22:44.390Z,4.20
2023-03-15T09:25:11.546Z,4.40
2023-03-15T09:27:38.821Z,4.50
2023-03-15T09:30:06.739Z,4.50
2023-03-15T09:32:36.311Z,4.60
2023-03-15T09:35:05.770Z,4.70
2023-03-15T09:37:33.068Z,4.80
2023-03-15T09:40:01.708Z,5.00
2023-03-15T09:42:40.821Z,5.10
2023-03-15T09:45:21.021Z,5.20
2023-03-15T09:47:58.906Z,5.10
2023-03-15T09:50:39.223Z,4.90
2023-03-15T09:53:17.304Z,4.70
2023-03-15T09:55:48.657Z,4.50
2023-03-15T09:58:24.277Z,4.90
2023-03-15T10:00:55.205Z,5.20
2023-03-15T10:03:51.716Z,5.50
2023-03-15T10:06:24.195Z,5.50
2023-03-15T10:08:56.664Z,5.40
2023-03-15T10:11:46.437Z,5.20
2023-03-15T10:14:19.691Z,5.10
2023-03-15T10:16:48.762Z,4.90
2023-03-15T10:19:38.788Z,4.90
2023-03-15T10:22:23.224Z,4.90
2023-03-15T10:24:55.457Z,4.90
2023-03-15T10:27:26.179Z,4.90
2023-03-15T10:29:57.190Z,5.10
2023-03-15T10:32:43.345Z,5.40
2023-03-15T10:35:18.367Z,5.50
2023-03-15T10:37:45.919Z,5.70
2023-03-15T10:40:15.809Z,5.90
2023-03-15T10:42:44.821Z,5.80
2023-03-15T10:45:21.564Z,5.80
2023-03-15T10:47:59.691Z,5.70
2023-03-15T10:50:32.754Z,5.70
2023-03-15T10:53:08.678Z,5.80
2023-03-15T10:55:42.135Z,5.70
2023-03-15T10:58:40.408Z,5.60
2023-03-15T11:01:13.889Z,5.50
2023-03-15T11:03:43.894Z,5.40
2023-03-15T11:06:25.790Z,5.20
2023-03-15T11:08:52.931Z,5.10
2023-03-15T11:11:21.350Z,5.20
2023-03-15T11:14:01.426Z,5.20
2023-03-15T11:16:35.385Z,5.10
2023-03-15T11:19:07.430Z,4.90
2023-03-15T11:21:36.795Z,4.90
2023-03-15T11:24:06.621Z,4.80
2023-03-15T11:26:37.892Z,4.90
2023-03-15T11:29:21.074Z,4.90
2023-03-15T11:31:50.088Z,5.00
2023-03-15T11:34:20.955Z,4.80
2023-03-15T11:37:05.577Z,4.90
2023-03-15T11:40:11.234Z,5.20
2023-03-15T11:43:03.105Z,5.60
2023-03-15T11:45:43.364Z,5.90
2023-03-15T11:48:52.938Z,6.00
2023-03-15T11:51:20.619Z,6.10
2023-03-15T11:54:05.959Z,6.20
2023-03-15T11:56:45.387Z,6.60
2023-03-15T11:59:13.010Z,6.90
2023-03-15T12:01:57.996Z,7.10
2023-03-15T12:04:37.776Z,7.10
2023-03-15T12:07:30.100Z,6.90
2023-03-15T12:10:03.379Z,6.70
2023-03-15T12:12:30.689Z,6.60
2023-03-15T12:15:18.320Z,6.60
2023-03-15T12:17:51.044Z,6.50
2023-03-15T12:20:49.167Z,6.70
2023-03-15T12:23:19.248Z,6.90
2023-03-15T12:25:55.691Z,7.10
2023-03-15T12:28:30.259Z,6.70
2023-03-15T12:31:01.847Z,6.70
2023-03-15T12:33:32.013Z,6.80
2023-03-15T12:36:02.530Z,6.80
2023-03-15T12:38:39.222Z,6.80
2023-03-15T12:41:09.187Z,6.70
2023-03-15T12:43:44.873Z,6.90
2023-03-15T12:46:37.041Z,7.00
2023-03-15T12:49:12.428Z,7.20
2023-03-15T12:52:18.498Z,7.00
2023-03-15T12:54:51.311Z,6.90
2023-03-15T12:57:22.666Z,6.50
2023-03-15T13:00:00.041Z,6.30
2023-03-15T13:02:45.063Z,6.30
2023-03-15T13:05:20.727Z,6.50
2023-03-15T13:08:06.885Z,6.60
2023-03-15T13:10:55.609Z,6.50
2023-03-15T13:13:48.751Z,6.30
2023-03-15T13:16:25.615Z,6.30
2023-03-15T13:19:19.717Z,6.40
2023-03-15T13:22:11.884Z,6.60
2023-03-15T13:24:52.352Z,6.60
2023-03-15T13:27:35.956Z,6.60
2023-03-15T13:30:28.007Z,6.50
2023-03-15T13:33:32.175Z,6.50
2023-03-15T13:36:05.703Z,6.40
2023-03-15T13:38:46.375Z,6.60
2023-03-15T13:41:22.936Z,6.70
2023-03-15T13:43:52.008Z,6.90
2023-03-15T13:46:24.617Z,7.00
2023-03-15T13:48:53.930Z,7.00
2023-03-15T13:51:25.642Z,7.10
2023-03-15T13:54:06.743Z,7.10
2023-03-15T13:56:49.663Z,7.20
2023-03-15T13:59:18.411Z,6.90
2023-03-15T14:01:45.764Z,6.80
2023-03-15T14:04:17.344Z,6.80
2023-03-15T14:06:48.211Z,6.70
2023-03-15T14:09:28.740Z,6.70
2023-03-15T14:12:06.400Z,6.50
2023-03-15T14:14:38.752Z,6.60
2023-03-15T14:17:29.735Z,6.70
2023-03-15T14:20:08.801Z,6.80
2023-03-15T14:22:36.691Z,7.00
2023-03-15T14:25:18.766Z,6.80
2023-03-15T14:27:46.025Z,6.70
2023-03-15T14:30:25.616Z,6.60
2023-03-15T14:32:56.179Z,6.50
2023-03-15T14:35:41.807Z,6.40
2023-03-15T14:38:24.486Z,6.30
2023-03-15T14:40:53.522Z,6.10
2023-03-15T14:43:20.829Z,6.20
2023-03-15T14:45:49.179Z,6.30
2023-03-15T14:48:31.857Z,6.30
2023-03-15T14:50:59.069Z,6.10
2023-03-15T14:53:34.514Z,6.20
2023-03-15T14:56:01.989Z,6.20
2023-03-15T14:58:29.165Z,6.20
2023-03-15T15:00:57.910Z,6.30
2023-03-15T15:03:38.548Z,6.40
2023-03-15T15:06:12.149Z,6.40
2023-03-15T15:08:41.741Z,6.40
2023-03-15T15:11:09.452Z,6.40
2023-03-15T15:13:37.796Z,6.40
2023-03-15T15:16:06.136Z,6.40
2023-03-15T15:18:35.675Z,6.40
2023-03-15T15:21:11.319Z,6.40
2023-03-15T15:23:56.772Z,6.30
2023-03-15T15:26:26.939Z,6.20
2023-03-15T15:28:54.465Z,6.00
2023-03-15T15:31:23.797Z,6.00
2023-03-15T15:33:52.336Z,5.90
2023-03-15T15:36:25.276Z,5.80
2023-03-15T15:38:53.018Z,5.80
2023-03-15T15:41:25.700Z,5.90
2023-03-15T15:43:53.395Z,6.00
2023-03-15T15:46:20.701Z,6.00
2023-03-15T15:48:47.968Z,5.90
2023-03-15T15:51:25.234Z,5.80
2023-03-15T15:53:53.537Z,5.90
2023-03-15T15:56:22.846Z,5.80
2023-03-15T15:58:50.041Z,5.90
2023-03-15T16:01:17.344Z,5.80
2023-03-15T16:03:44.602Z,5.90
2023-03-15T16:06:20.093Z,5.80
2023-03-15T16:08:49.820Z,5.80
2023-03-15T16:11:18.506Z,5.70
2023-03-15T16:13:46.980Z,5.70
2023-03-15T16:16:15.891Z,5.60
2023-03-15T16:18:43.726Z,5.40
2023-03-15T16:21:24.465Z,5.30
2023-03-15T16:23:57.274Z,5.20
2023-03-15T16:26:24.945Z,5.20
2023-03-15T16:28:52.109Z,5.10
2023-03-15T16:31:22.356Z,5.10
2023-03-15T16:33:49.998Z,5.10
2023-03-15T16:36:19.327Z,5.00
2023-03-15T16:38:47.287Z,4.90
2023-03-15T16:41:17.276Z,4.80
2023-03-15T16:43:46.734Z,4.60
2023-03-15T16:46:16.911Z,4.70
2023-03-15T16:48:44.200Z,4.70
2023-03-15T16:51:14.637Z,4.60
2023-03-15T16:53:44.430Z,4.50
2023-03-15T16:56:15.305Z,4.40
2023-03-15T16:58:44.034Z,4.40
2023-03-15T17:01:11.704Z,4.30
2023-03-15T17:03:39.042Z,4.40
2023-03-15T17:06:14.193Z,4.40
2023-03-15T17:08:41.355Z,4.50
2023-03-15T17:11:09.714Z,4.60
2023-03-15T17:13:40.657Z,4.70
2023-03-15T17:16:16.310Z,4.80
2023-03-15T17:18:43.920Z,4.80
2023-03-15T17:21:14.093Z,4.70
2023-03-15T17:23:41.803Z,4.80
2023-03-15T17:26:14.155Z,4.80
2023-03-15T17:28:43.648Z,4.50
2023-03-15T17:31:25.351Z,4.40
2023-03-15T17:33:53.210Z,4.30
2023-03-15T17:36:23.009Z,4.30
2023-03-15T17:38:51.000Z,4.20
2023-03-15T17:41:22.691Z,4.30
2023-03-15T17:43:51.139Z,4.40
2023-03-15T17:46:19.904Z,4.40
2023-03-15T17:48:48.094Z,4.40
2023-03-15T17:51:20.089Z,4.30
2023-03-15T17:53:47.586Z,4.20
2023-03-15T17:56:15.276Z,4.20
2023-03-15T17:58:44.984Z,4.10
2023-03-15T18:01:18.137Z,4.10
2023-03-15T18:03:47.194Z,4.20
2023-03-15T18:06:15.137Z,4.20
2023-03-15T18:08:42.684Z,4.10
2023-03-15T18:11:41.969Z,4.10
2023-03-15T18:14:14.314Z,4.20
2023-03-15T18:16:43.226Z,4.30
2023-03-15T18:19:10.708Z,4.20
2023-03-15T18:21:37.995Z,4.20
2023-03-15T18:24:05.490Z,4.10
2023-03-15T18:26:32.641Z,4.10
2023-03-15T18:28:59.943Z,4.10
2023-03-15T18:31:27.236Z,4.10
2023-03-15T18:33:54.537Z,4.10
2023-03-15T18:36:21.744Z,4.10
2023-03-15T18:38:49.231Z,4.20
2023-03-15T18:41:20.684Z,4.20
2023-03-15T18:43:51.867Z,4.20
2023-03-15T18:46:26.969Z,4.00
2023-03-15T18:48:54.475Z,3.90
2023-03-15T18:51:25.638Z,3.90
2023-03-15T18:53:53.144Z,3.80
2023-03-15T18:56:23.193Z,3.80
2023-03-15T18:58:51.736Z,3.70
2023-03-15T19:01:24.586Z,3.70
2023-03-15T19:03:52.989Z,3.60
2023-03-15T19:06:22.208Z,3.60
2023-03-15T19:08:53.305Z,3.50
2023-03-15T19:11:21.650Z,3.40
2023-03-15T19:13:51.135Z,3.50
2023-03-15T19:16:22.009Z,3.40
2023-03-15T19:18:51.240Z,3.50
2023-03-15T19:21:19.657Z,3.40
2023-03-15T19:23:47.329Z,3.40
2023-03-15T19:26:14.739Z,3.50
2023-03-15T19:28:42.062Z,3.60
2023-03-15T19:31:09.729Z,3.50
2023-03-15T19:33:38.083Z,3.60
2023-03-15T19:36:05.609Z,3.60
2023-03-15T19:38:33.095Z,3.40
2023-03-15T19:41:04.887Z,3.40
2023-03-15T19:43:32.589Z,3.40
2023-03-15T19:46:01.433Z,3.50
2023-03-15T19:48:28.714Z,3.50
2023-03-15T19:50:55.907Z,3.50
2023-03-15T19:53:23.045Z,3.60
2023-03-15T19:55:50.496Z,3.60
2023-03-15T19:58:17.697Z,3.60
2023-03-15T20:00:44.849Z,3.60
2023-03-15T20:03:12.515Z,3.50
2023-03-15T20:05:39.803Z,3.40
2023-03-15T20:08:08.351Z,3.40
2023-03-15T20:10:35.619Z,3.40
2023-03-15T20:13:03.445Z,3.30
2023-03-15T20:15:32.181Z,3.40
2023-03-15T20:17:59.674Z,3.40
2023-03-15T20:20:26.940Z,3.30
2023-03-15T20:22:54.122Z,3.30
2023-03-15T20:25:21.422Z,3.30
2023-03-15T20:27:48.697Z,3.20
2023-03-15T20:30:17.846Z,3.10
2023-03-15T20:32:45.157Z,3.00
2023-03-15T20:35:12.808Z,3.10
2023-03-15T20:37:42.132Z,3.10
2023-03-15T20:40:14.401Z,3.10
2023-03-15T20:42:42.355Z,3.10
2023-03-15T20:45:12.225Z,3.10
2023-03-15T20:47:39.998Z,3.10
2023-03-15T20:50:08.922Z,3.10
2023-03-15T20:52:36.163Z,3.10
2023-03-15T20:55:05.837Z,3.10
2023-03-15T20:57:33.142Z,3.00
2023-03-15T21:00:00.320Z,3.00
2023-03-15T21:02:27.503Z,3.00
2023-03-15T21:04:54.740Z,3.00
2023-03-15T21:07:21.959Z,2.90
2023-03-15T21:09:49.109Z,2.90
2023-03-15T21:12:16.254Z,2.90
2023-03-15T21:14:43.493Z,2.80
2023-03-15T21:17:11.141Z,2.80
2023-03-15T21:19:38.485Z,2.70
2023-03-15T21:22:05.929Z,2.70
2023-03-15T21:24:40.653Z,2.80
2023-03-15T21:27:11.620Z,2.80
2023-03-15T21:29:40.090Z,2.80
2023-03-15T21:32:07.660Z,2.80
2023-03-15T21:34:35.042Z,2.80
2023-03-15T21:37:02.290Z,2.80
2023-03-15T21:39:29.453Z,2.90
2023-03-15T21:41:56.815Z,2.80
2023-03-15T21:44:23.968Z,2.90
2023-03-15T21:46:52.880Z,2.90
2023-03-15T21:49:20.318Z,2.90
2023-03-15T21:51:47.450Z,3.00
2023-03-15T21:54:14.762Z,3.00
2023-03-15T21:56:41.987Z,3.00
2023-03-15T21:59:09.289Z,3.00
2023-03-15T22:01:37.436Z,3.00
2023-03-15T22:04:04.738Z,3.10
2023-03-15T22:06:32.602Z,3.10
2023-03-15T22:08:59.743Z,3.10
2023-03-15T22:11:26.953Z,3.10
2023-03-15T22:13:54.141Z,3.10
2023-03-15T22:16:21.421Z,3.10
2023-03-15T22:18:48.705Z,3.00
2023-03-15T22:21:15.841Z,3.00
2023-03-15T22:23:43.045Z,2.90
2023-03-15T22:26:10.637Z,2.90
2023-03-15T22:28:37.870Z,2.90
2023-03-15T22:31:05.256Z,2.80
2023-03-15T22:33:32.537Z,2.80
2023-03-15T22:35:59.913Z,2.80
2023-03-15T22:38:27.215Z,2.80
2023-03-15T22:41:03.219Z,2.80
2023-03-15T22:43:30.677Z,2.90
2023-03-15T22:45:58.238Z,2.90
2023-03-15T22:48:25.984Z,2.90
2023-03-15T22:51:00.295Z,3.00
2023-03-15T22:53:27.895Z,3.00
2023-03-15T22:55:55.520Z,3.00
2023-03-15T22:58:23.629Z,3.00
2023-03-15T23:00:51.141Z,3.00
2023-03-15T23:03:19.381Z,2.90
2023-03-15T23:05:47.003Z,2.90
2023-03-15T23:08:14.316Z,2.90
2023-03-15T23:10:42.220Z,2.90
2023-03-15T23:13:09.577Z,2.90
2023-03-15T23:15:36.873Z,2.90
2023-03-15T23:18:05.392Z,2.90
2023-03-15T23:20:33.171Z,2.90
2023-03-15T23:23:00.409Z,3.00
2023-03-15T23:25:28.910Z,3.00
2023-03-15T23:27:56.583Z,3.00
2023-03-15T23:30:24.105Z,3.00
2023-03-15T23:32:57.374Z,2.90
2023-03-15T23:35:25.145Z,2.90
2023-03-15T23:37:53.085Z,2.90
2023-03-15T23:40:21.270Z,2.90
2023-03-15T23:42:52.603Z,2.80
2023-03-15T23:45:19.885Z,2.80
2023-03-15T23:47:47.300Z,2.80
2023-03-15T23:50:14.575Z,2.80
2023-03-15T23:52:41.722Z,2.80
2023-03-15T23:55:09.266Z,2.80
2023-03-15T23:57:36.462Z,2.80
